OAL114 LGAV-LFKC
Flight info
| Callsign | OAL114 |
|---|---|
| Flight time | N/A |
| Altitude | 34000 |
| Route | KOR UL53 KRK UL995 TIGRA KAPPO VEBOX NAPOX MIRSA A3 CAPCO |
| Aircraft | B737/M-VGDW/C |
Departure
| Time | 2026-05-08 08:49 |
|---|---|
| Airport | Athens Eleftherios Venizelos International Airport (LGAV) |
Arrival
| Time | N/A |
|---|---|
| Airport | Calvi Sainte Catherine Airport (LFKC) |
| Time | Latitude | Longitude | Altitude | Speed | Heading |
|---|---|---|---|---|---|
| 2026-05-08 08:31 | 37.93835 | 23.95062 | 300 ft | 0 kts | 308° |
| 2026-05-08 08:38 | 37.93827 | 23.95076 | 301 ft | 2 kts | 307° |
| 2026-05-08 08:38 | 37.93817 | 23.95092 | 300 ft | 2 kts | 307° |
| 2026-05-08 08:38 | 37.93807 | 23.95109 | 299 ft | 2 kts | 307° |
| 2026-05-08 08:39 | 37.93796 | 23.95124 | 299 ft | 2 kts | 334° |
| 2026-05-08 08:39 | 37.93780 | 23.95129 | 299 ft | 2 kts | 23° |
| 2026-05-08 08:39 | 37.93771 | 23.95123 | 299 ft | 0 kts | 39° |
| 2026-05-08 08:41 | 37.93775 | 23.95127 | 299 ft | 2 kts | 39° |
| 2026-05-08 08:42 | 37.93792 | 23.95144 | 301 ft | 5 kts | 39° |
| 2026-05-08 08:42 | 37.93825 | 23.95178 | 301 ft | 8 kts | 39° |
| 2026-05-08 08:42 | 37.93835 | 23.95188 | 302 ft | 0 kts | 39° |
| 2026-05-08 08:42 | 37.93836 | 23.95190 | 302 ft | 1 kts | 39° |
| 2026-05-08 08:43 | 37.93850 | 23.95209 | 301 ft | 5 kts | 54° |
| 2026-05-08 08:43 | 37.93871 | 23.95264 | 299 ft | 9 kts | 69° |
| 2026-05-08 08:43 | 37.93884 | 23.95349 | 298 ft | 11 kts | 102° |
| 2026-05-08 08:43 | 37.93851 | 23.95451 | 296 ft | 14 kts | 83° |
| 2026-05-08 08:44 | 37.93926 | 23.95543 | 299 ft | 16 kts | 35° |
| 2026-05-08 08:44 | 37.94021 | 23.95634 | 298 ft | 18 kts | 36° |
| 2026-05-08 08:44 | 37.94126 | 23.95731 | 297 ft | 19 kts | 37° |
| 2026-05-08 08:44 | 37.94231 | 23.95831 | 297 ft | 19 kts | 37° |
| 2026-05-08 08:45 | 37.94333 | 23.95929 | 299 ft | 18 kts | 37° |
| 2026-05-08 08:45 | 37.94432 | 23.96023 | 299 ft | 17 kts | 37° |
| 2026-05-08 08:45 | 37.94527 | 23.96113 | 298 ft | 17 kts | 37° |
| 2026-05-08 08:45 | 37.94619 | 23.96200 | 298 ft | 16 kts | 37° |
| 2026-05-08 08:46 | 37.94707 | 23.96284 | 299 ft | 16 kts | 36° |
| 2026-05-08 08:46 | 37.94790 | 23.96363 | 300 ft | 15 kts | 37° |
| 2026-05-08 08:46 | 37.94871 | 23.96441 | 302 ft | 14 kts | 37° |
| 2026-05-08 08:46 | 37.94949 | 23.96515 | 300 ft | 14 kts | 37° |
| 2026-05-08 08:47 | 37.95024 | 23.96585 | 302 ft | 13 kts | 37° |
| 2026-05-08 08:47 | 37.95097 | 23.96654 | 302 ft | 13 kts | 37° |
| 2026-05-08 08:47 | 37.95174 | 23.96728 | 302 ft | 15 kts | 37° |
| 2026-05-08 08:47 | 37.95258 | 23.96808 | 303 ft | 15 kts | 36° |
| 2026-05-08 08:48 | 37.95288 | 23.96912 | 304 ft | 14 kts | 121° |
| 2026-05-08 08:48 | 37.95229 | 23.97007 | 310 ft | 14 kts | 140° |
| 2026-05-08 08:48 | 37.95156 | 23.96991 | 308 ft | 4 kts | 216° |
| 2026-05-08 08:48 | 37.95117 | 23.96955 | 308 ft | 14 kts | 216° |
| 2026-05-08 08:49 | 37.94905 | 23.96752 | 305 ft | 75 kts | 217° |
| 2026-05-08 08:49 | 37.94286 | 23.96164 | 295 ft | 144 kts | 217° |
| 2026-05-08 08:49 | 37.93444 | 23.95369 | 955 ft | 150 kts | 216° |
| 2026-05-08 08:49 | 37.92600 | 23.94558 | 1836 ft | 153 kts | 215° |
| 2026-05-08 08:50 | 37.91704 | 23.93814 | 2471 ft | 166 kts | 200° |
| 2026-05-08 08:50 | 37.90546 | 23.93189 | 2779 ft | 195 kts | 206° |
| 2026-05-08 08:50 | 37.89268 | 23.92334 | 3120 ft | 217 kts | 208° |
| 2026-05-08 08:50 | 37.87933 | 23.91424 | 3740 ft | 226 kts | 208° |
| 2026-05-08 08:51 | 37.86521 | 23.90463 | 4378 ft | 234 kts | 208° |
| 2026-05-08 08:51 | 37.85074 | 23.89481 | 5353 ft | 235 kts | 208° |
| 2026-05-08 08:51 | 37.83631 | 23.88508 | 6337 ft | 236 kts | 209° |
| 2026-05-08 08:51 | 37.82166 | 23.87523 | 7174 ft | 240 kts | 210° |
| 2026-05-08 08:52 | 37.80682 | 23.86525 | 8060 ft | 243 kts | 210° |
| 2026-05-08 08:52 | 37.79180 | 23.85517 | 8980 ft | 245 kts | 210° |
| 2026-05-08 08:52 | 37.77682 | 23.84514 | 9827 ft | 249 kts | 211° |
| 2026-05-08 08:52 | 37.76140 | 23.83481 | 10618 ft | 252 kts | 211° |
| 2026-05-08 08:53 | 37.74575 | 23.82434 | 11376 ft | 256 kts | 212° |
| 2026-05-08 08:53 | 37.72984 | 23.81372 | 12156 ft | 260 kts | 213° |
| 2026-05-08 08:53 | 37.71368 | 23.80294 | 12925 ft | 265 kts | 213° |
| 2026-05-08 08:53 | 37.69726 | 23.79200 | 13704 ft | 269 kts | 214° |
| 2026-05-08 08:54 | 37.68055 | 23.78086 | 14438 ft | 273 kts | 214° |
| 2026-05-08 08:54 | 37.66363 | 23.76960 | 15186 ft | 276 kts | 214° |
| 2026-05-08 08:54 | 37.64675 | 23.75837 | 15908 ft | 280 kts | 214° |
| 2026-05-08 08:54 | 37.62942 | 23.74684 | 16654 ft | 283 kts | 215° |
| 2026-05-08 08:55 | 37.61186 | 23.73517 | 17384 ft | 287 kts | 215° |
| 2026-05-08 08:55 | 37.59404 | 23.72333 | 18112 ft | 291 kts | 215° |
| 2026-05-08 08:55 | 37.57600 | 23.71126 | 18794 ft | 294 kts | 218° |
| 2026-05-08 08:55 | 37.56065 | 23.69421 | 19002 ft | 301 kts | 240° |
| 2026-05-08 08:56 | 37.55147 | 23.67007 | 19166 ft | 315 kts | 257° |
| 2026-05-08 08:56 | 37.54649 | 23.64277 | 19322 ft | 334 kts | 260° |
| 2026-05-08 08:56 | 37.54188 | 23.61322 | 19441 ft | 353 kts | 260° |
| 2026-05-08 08:56 | 37.53716 | 23.58218 | 19682 ft | 367 kts | 260° |
| 2026-05-08 08:57 | 37.53222 | 23.55033 | 20177 ft | 371 kts | 259° |
| 2026-05-08 08:57 | 37.52717 | 23.51845 | 20836 ft | 371 kts | 259° |
| 2026-05-08 08:57 | 37.52202 | 23.48653 | 21472 ft | 372 kts | 259° |
| 2026-05-08 08:57 | 37.51680 | 23.45450 | 22044 ft | 374 kts | 259° |
| 2026-05-08 08:58 | 37.51152 | 23.42231 | 22604 ft | 376 kts | 258° |
| 2026-05-08 08:58 | 37.50619 | 23.38982 | 23151 ft | 379 kts | 258° |
| 2026-05-08 08:58 | 37.50084 | 23.35732 | 23691 ft | 380 kts | 258° |
| 2026-05-08 08:58 | 37.49550 | 23.32494 | 24120 ft | 382 kts | 258° |
| 2026-05-08 08:59 | 37.49200 | 23.29183 | 24552 ft | 385 kts | 269° |
| 2026-05-08 08:59 | 37.49592 | 23.25826 | 25033 ft | 390 kts | 282° |
| 2026-05-08 08:59 | 37.50642 | 23.22647 | 25490 ft | 400 kts | 294° |
| 2026-05-08 08:59 | 37.52299 | 23.19758 | 25848 ft | 414 kts | 306° |
| 2026-05-08 09:00 | 37.54555 | 23.17401 | 26264 ft | 431 kts | 321° |
| 2026-05-08 09:00 | 37.57191 | 23.15634 | 26700 ft | 437 kts | 325° |
| 2026-05-08 09:00 | 37.59949 | 23.13958 | 27047 ft | 442 kts | 326° |
| 2026-05-08 09:00 | 37.62755 | 23.12296 | 27378 ft | 446 kts | 326° |
| 2026-05-08 09:01 | 37.65572 | 23.10619 | 27730 ft | 449 kts | 326° |
| 2026-05-08 09:01 | 37.68401 | 23.08908 | 28059 ft | 451 kts | 325° |
| 2026-05-08 09:01 | 37.71232 | 23.07171 | 28431 ft | 452 kts | 325° |
| 2026-05-08 09:01 | 37.74052 | 23.05427 | 28925 ft | 451 kts | 324° |
| 2026-05-08 09:02 | 37.76862 | 23.03679 | 29381 ft | 449 kts | 324° |
| 2026-05-08 09:02 | 37.79644 | 23.01949 | 30113 ft | 441 kts | 324° |
| 2026-05-08 09:02 | 37.82359 | 23.00256 | 30531 ft | 442 kts | 323° |
| 2026-05-08 09:02 | 37.85131 | 22.98520 | 30796 ft | 445 kts | 323° |
| 2026-05-08 09:03 | 37.87901 | 22.96788 | 31210 ft | 443 kts | 323° |
| 2026-05-08 09:03 | 37.90653 | 22.95069 | 31780 ft | 437 kts | 322° |
| 2026-05-08 09:03 | 37.93102 | 22.92987 | 32336 ft | 414 kts | 308° |
| 2026-05-08 09:03 | 37.94955 | 22.90325 | 32856 ft | 396 kts | 297° |
| 2026-05-08 09:04 | 37.96516 | 22.87480 | 33333 ft | 391 kts | 296° |
| 2026-05-08 09:04 | 37.98034 | 22.84629 | 33760 ft | 389 kts | 296° |
| 2026-05-08 09:04 | 37.99554 | 22.81783 | 34123 ft | 389 kts | 296° |
| 2026-05-08 09:04 | 38.01094 | 22.78929 | 34113 ft | 394 kts | 297° |
| 2026-05-08 09:05 | 38.04223 | 22.73220 | 34153 ft | 393 kts | 297° |
| 2026-05-08 09:05 | 38.07320 | 22.67586 | 34156 ft | 387 kts | 297° |
| 2026-05-08 09:06 | 38.10382 | 22.62001 | 34140 ft | 387 kts | 297° |
| 2026-05-08 09:06 | 38.13455 | 22.56383 | 34143 ft | 387 kts | 297° |
| 2026-05-08 09:07 | 38.15509 | 22.52623 | 34144 ft | 387 kts | 297° |
| 2026-05-08 09:07 | 38.19587 | 22.45144 | 34141 ft | 388 kts | 297° |
| 2026-05-08 09:08 | 38.22660 | 22.39498 | 34142 ft | 389 kts | 296° |
| 2026-05-08 09:08 | 38.25745 | 22.33821 | 34140 ft | 390 kts | 296° |
| 2026-05-08 09:09 | 38.28834 | 22.28126 | 34137 ft | 391 kts | 296° |
| 2026-05-08 09:09 | 38.31930 | 22.22409 | 34138 ft | 393 kts | 296° |
| 2026-05-08 09:10 | 38.35037 | 22.16666 | 34144 ft | 394 kts | 296° |
| 2026-05-08 09:10 | 38.38159 | 22.10887 | 34140 ft | 397 kts | 296° |
| 2026-05-08 09:11 | 38.41279 | 22.05099 | 34142 ft | 400 kts | 297° |
| 2026-05-08 09:11 | 38.44432 | 21.99241 | 34127 ft | 402 kts | 297° |
| 2026-05-08 09:12 | 38.47599 | 21.93346 | 34137 ft | 402 kts | 297° |
| 2026-05-08 09:12 | 38.50766 | 21.87441 | 34144 ft | 404 kts | 297° |
| 2026-05-08 09:13 | 38.53964 | 21.81460 | 34130 ft | 409 kts | 297° |
| 2026-05-08 09:13 | 38.57175 | 21.75436 | 34106 ft | 411 kts | 297° |
| 2026-05-08 09:14 | 38.60366 | 21.69441 | 34106 ft | 409 kts | 297° |
| 2026-05-08 09:14 | 38.63562 | 21.63424 | 34126 ft | 408 kts | 297° |
| 2026-05-08 09:15 | 38.66744 | 21.57418 | 34117 ft | 407 kts | 297° |
| 2026-05-08 09:15 | 38.69921 | 21.51415 | 34118 ft | 407 kts | 297° |
| 2026-05-08 09:16 | 38.73089 | 21.45413 | 34111 ft | 406 kts | 298° |
| 2026-05-08 09:16 | 38.76233 | 21.39440 | 34107 ft | 405 kts | 298° |
| 2026-05-08 09:17 | 38.79383 | 21.33443 | 34105 ft | 405 kts | 298° |
| 2026-05-08 09:17 | 38.82526 | 21.27447 | 34100 ft | 405 kts | 298° |
| 2026-05-08 09:18 | 38.85664 | 21.21450 | 34098 ft | 405 kts | 298° |
| 2026-05-08 09:18 | 38.88800 | 21.15447 | 34092 ft | 404 kts | 298° |
| 2026-05-08 09:19 | 38.91907 | 21.09487 | 34083 ft | 404 kts | 297° |
| 2026-05-08 09:19 | 38.95027 | 21.03490 | 34081 ft | 404 kts | 297° |
| 2026-05-08 09:20 | 38.98143 | 20.97493 | 34082 ft | 404 kts | 297° |
| 2026-05-08 09:20 | 39.01261 | 20.91482 | 34077 ft | 404 kts | 297° |
| 2026-05-08 09:21 | 39.04383 | 20.85455 | 34080 ft | 404 kts | 297° |
| 2026-05-08 09:23 | 39.15256 | 20.64369 | 34085 ft | 406 kts | 297° |
| 2026-05-08 09:23 | 39.18379 | 20.58285 | 34073 ft | 407 kts | 297° |
| 2026-05-08 09:24 | 39.21511 | 20.52173 | 34073 ft | 409 kts | 297° |
| 2026-05-08 09:24 | 39.24647 | 20.46044 | 34081 ft | 411 kts | 297° |
| 2026-05-08 09:25 | 39.27804 | 20.39867 | 34070 ft | 413 kts | 297° |
| 2026-05-08 09:25 | 39.30976 | 20.33671 | 34066 ft | 413 kts | 297° |
| 2026-05-08 09:26 | 39.34136 | 20.27489 | 34057 ft | 412 kts | 297° |
| 2026-05-08 09:26 | 39.37289 | 20.21301 | 34049 ft | 411 kts | 297° |
| 2026-05-08 09:27 | 39.40413 | 20.15160 | 34059 ft | 411 kts | 297° |
| 2026-05-08 09:27 | 39.43547 | 20.08987 | 34055 ft | 411 kts | 297° |
| 2026-05-08 09:28 | 39.46845 | 20.02907 | 34069 ft | 414 kts | 301° |
| 2026-05-08 09:28 | 39.50339 | 19.96951 | 34042 ft | 415 kts | 301° |
| 2026-05-08 09:29 | 39.53820 | 19.91018 | 34048 ft | 415 kts | 301° |
| 2026-05-08 09:29 | 39.57282 | 19.85056 | 34050 ft | 414 kts | 301° |
| 2026-05-08 09:30 | 39.60155 | 19.80078 | 34053 ft | 414 kts | 301° |
| 2026-05-08 09:30 | 39.63595 | 19.74101 | 34055 ft | 413 kts | 301° |
| 2026-05-08 09:31 | 39.67047 | 19.68089 | 34050 ft | 415 kts | 301° |
| 2026-05-08 09:31 | 39.70504 | 19.62056 | 34046 ft | 417 kts | 301° |
| 2026-05-08 09:32 | 39.73971 | 19.55997 | 34044 ft | 419 kts | 301° |
| 2026-05-08 09:32 | 39.77447 | 19.49909 | 34033 ft | 424 kts | 302° |
| 2026-05-08 09:33 | 39.80970 | 19.43728 | 34006 ft | 426 kts | 302° |
| 2026-05-08 09:33 | 39.84496 | 19.37534 | 34006 ft | 425 kts | 302° |
| 2026-05-08 09:34 | 39.88008 | 19.31350 | 33996 ft | 425 kts | 302° |
| 2026-05-08 09:34 | 39.91511 | 19.25169 | 33992 ft | 424 kts | 302° |
| 2026-05-08 09:35 | 39.95010 | 19.18983 | 33988 ft | 423 kts | 302° |
| 2026-05-08 09:35 | 39.98498 | 19.12801 | 33985 ft | 422 kts | 302° |
| 2026-05-08 09:36 | 40.01974 | 19.06631 | 33982 ft | 422 kts | 302° |
| 2026-05-08 09:36 | 40.05450 | 19.00451 | 33960 ft | 422 kts | 302° |
| 2026-05-08 09:37 | 40.08924 | 18.94282 | 33970 ft | 422 kts | 303° |
| 2026-05-08 09:37 | 40.12401 | 18.88110 | 33963 ft | 422 kts | 302° |
| 2026-05-08 09:38 | 40.15862 | 18.81954 | 33957 ft | 423 kts | 302° |
| 2026-05-08 09:38 | 40.19340 | 18.75752 | 33954 ft | 423 kts | 303° |
| 2026-05-08 09:39 | 40.22831 | 18.69515 | 33955 ft | 424 kts | 303° |
| 2026-05-08 09:39 | 40.26319 | 18.63270 | 33956 ft | 425 kts | 303° |
| 2026-05-08 09:40 | 40.29810 | 18.57007 | 33954 ft | 426 kts | 303° |
| 2026-05-08 09:40 | 40.33313 | 18.50708 | 33952 ft | 427 kts | 303° |
| 2026-05-08 09:41 | 40.36801 | 18.44426 | 33949 ft | 429 kts | 303° |
| 2026-05-08 09:41 | 40.40322 | 18.38071 | 33953 ft | 431 kts | 303° |
| 2026-05-08 09:42 | 40.43856 | 18.31680 | 33951 ft | 432 kts | 303° |
| 2026-05-08 09:42 | 40.47389 | 18.25278 | 33950 ft | 434 kts | 303° |
| 2026-05-08 09:43 | 40.50912 | 18.18878 | 33950 ft | 435 kts | 303° |
| 2026-05-08 09:43 | 40.54466 | 18.12411 | 33938 ft | 436 kts | 303° |
| 2026-05-08 09:44 | 40.58021 | 18.05930 | 33939 ft | 436 kts | 303° |
| 2026-05-08 09:44 | 40.61270 | 17.99204 | 33938 ft | 434 kts | 292° |
| 2026-05-08 09:45 | 40.63184 | 17.91773 | 33945 ft | 431 kts | 284° |
| 2026-05-08 09:45 | 40.64862 | 17.84167 | 33942 ft | 433 kts | 284° |
| 2026-05-08 09:46 | 40.66557 | 17.76546 | 33941 ft | 433 kts | 284° |
| 2026-05-08 09:46 | 40.68280 | 17.68915 | 33952 ft | 434 kts | 285° |
| 2026-05-08 09:47 | 40.70010 | 17.61288 | 33937 ft | 435 kts | 284° |
| 2026-05-08 09:47 | 40.71731 | 17.53681 | 33943 ft | 436 kts | 284° |
| 2026-05-08 09:48 | 40.73458 | 17.46015 | 33936 ft | 437 kts | 284° |
| 2026-05-08 09:48 | 40.75187 | 17.38320 | 33953 ft | 437 kts | 284° |
| 2026-05-08 09:49 | 40.76913 | 17.30606 | 33953 ft | 440 kts | 284° |
| 2026-05-08 09:49 | 40.78644 | 17.22851 | 33968 ft | 439 kts | 284° |
| 2026-05-08 09:50 | 40.80363 | 17.15110 | 33961 ft | 440 kts | 284° |
| 2026-05-08 09:50 | 40.82064 | 17.07434 | 33949 ft | 436 kts | 284° |
| 2026-05-08 09:51 | 40.83757 | 16.99769 | 33963 ft | 432 kts | 284° |
| 2026-05-08 09:51 | 40.85431 | 16.92148 | 33988 ft | 432 kts | 284° |
| 2026-05-08 09:52 | 40.87108 | 16.84489 | 33952 ft | 434 kts | 284° |
| 2026-05-08 09:52 | 40.88779 | 16.76837 | 33974 ft | 433 kts | 284° |
| 2026-05-08 09:53 | 40.90448 | 16.69166 | 33996 ft | 434 kts | 284° |
| 2026-05-08 09:53 | 40.92102 | 16.61535 | 33996 ft | 435 kts | 284° |
| 2026-05-08 09:54 | 40.93763 | 16.53849 | 33994 ft | 435 kts | 284° |
| 2026-05-08 09:54 | 40.95423 | 16.46133 | 34004 ft | 436 kts | 283° |
| 2026-05-08 09:55 | 40.97083 | 16.38394 | 34012 ft | 437 kts | 283° |
| 2026-05-08 09:55 | 40.98742 | 16.30632 | 33994 ft | 439 kts | 283° |
| 2026-05-08 09:56 | 41.00403 | 16.22832 | 33987 ft | 440 kts | 283° |
| 2026-05-08 09:56 | 41.02047 | 16.15083 | 33987 ft | 440 kts | 283° |
| 2026-05-08 09:57 | 41.04519 | 16.03377 | 33981 ft | 440 kts | 283° |
| 2026-05-08 09:57 | 41.06162 | 15.95557 | 33981 ft | 440 kts | 283° |
| 2026-05-08 09:58 | 41.07802 | 15.87726 | 33991 ft | 441 kts | 283° |
| 2026-05-08 09:58 | 41.09438 | 15.79884 | 33987 ft | 440 kts | 283° |
| 2026-05-08 09:59 | 41.11050 | 15.72133 | 33989 ft | 439 kts | 283° |
| 2026-05-08 09:59 | 41.12664 | 15.64336 | 33999 ft | 437 kts | 283° |
| 2026-05-08 10:00 | 41.14270 | 15.56553 | 34004 ft | 438 kts | 283° |
| 2026-05-08 10:00 | 41.15992 | 15.48789 | 33992 ft | 438 kts | 287° |
| 2026-05-08 10:01 | 41.17982 | 15.41157 | 33990 ft | 437 kts | 288° |
| 2026-05-08 10:01 | 41.19994 | 15.33565 | 33988 ft | 436 kts | 287° |
| 2026-05-08 10:02 | 41.21961 | 15.26011 | 33992 ft | 435 kts | 287° |
| 2026-05-08 10:02 | 41.23915 | 15.18408 | 33987 ft | 434 kts | 287° |
| 2026-05-08 10:03 | 41.25854 | 15.10809 | 33994 ft | 434 kts | 287° |
| 2026-05-08 10:03 | 41.27785 | 15.03218 | 34001 ft | 434 kts | 287° |
| 2026-05-08 10:04 | 41.29717 | 14.95602 | 33988 ft | 434 kts | 287° |
| 2026-05-08 10:04 | 41.31641 | 14.87993 | 33993 ft | 434 kts | 287° |
| 2026-05-08 10:05 | 41.33560 | 14.80381 | 33992 ft | 434 kts | 287° |
| 2026-05-08 10:05 | 41.35479 | 14.72746 | 33990 ft | 434 kts | 287° |
| 2026-05-08 10:06 | 41.37385 | 14.65139 | 33991 ft | 433 kts | 287° |
| 2026-05-08 10:06 | 41.39271 | 14.57585 | 33990 ft | 432 kts | 287° |
| 2026-05-08 10:07 | 41.41159 | 14.49998 | 33985 ft | 430 kts | 286° |
| 2026-05-08 10:07 | 41.43034 | 14.42442 | 33989 ft | 429 kts | 286° |
| 2026-05-08 10:08 | 41.44902 | 14.34889 | 33981 ft | 428 kts | 286° |
| 2026-05-08 10:08 | 41.46757 | 14.27362 | 33974 ft | 427 kts | 285° |
| 2026-05-08 10:09 | 41.48605 | 14.19841 | 33982 ft | 426 kts | 285° |
| 2026-05-08 10:09 | 41.50443 | 14.12336 | 33986 ft | 424 kts | 285° |
| 2026-05-08 10:10 | 41.52272 | 14.04846 | 33978 ft | 424 kts | 285° |
| 2026-05-08 10:10 | 41.54077 | 13.97424 | 33965 ft | 423 kts | 285° |
| 2026-05-08 10:11 | 41.55889 | 13.89957 | 33982 ft | 422 kts | 285° |
| 2026-05-08 10:11 | 41.57696 | 13.82481 | 33977 ft | 423 kts | 284° |
| 2026-05-08 10:12 | 41.59502 | 13.74987 | 33977 ft | 424 kts | 284° |
| 2026-05-08 10:12 | 41.61294 | 13.67525 | 33982 ft | 424 kts | 284° |
| 2026-05-08 10:13 | 41.63095 | 13.60006 | 33977 ft | 425 kts | 284° |
| 2026-05-08 10:13 | 41.64892 | 13.52476 | 33966 ft | 425 kts | 284° |
| 2026-05-08 10:14 | 41.66391 | 13.46175 | 33967 ft | 424 kts | 284° |
| 2026-05-08 10:14 | 41.68463 | 13.37439 | 33972 ft | 423 kts | 284° |
| 2026-05-08 10:15 | 41.69940 | 13.31190 | 33970 ft | 422 kts | 284° |